Time;durP1;ratioP1;P1;durP2;ratioP2;P2;SDS_P1;SDS_P2;PMS_P1;PMS_P2;Temp;Humidity;BMP_temperature;BMP_pressure;BME280_temperature;BME280_humidity;BME280_pressure;Samples;Min_cycle;Max_cycle;Signal;HPM_P1;HPM_P2
2022/11/05 00:11:15;;;;;;;6.80;3.03;;;;;;;13.01;81.61;100351.22;5051005;28;20235;-63
2022/11/05 00:16:45;;;;;;;5.77;2.90;;;;;;;13.00;81.30;100346.91;5050696;28;21653;-64
2022/11/05 00:19:15;;;;;;;7.40;3.00;;;;;;;12.97;81.06;100348.06;5058526;28;20625;-62
2022/11/05 00:27:13;;;;;;;5.60;2.90;;;;;;;12.90;81.62;100363.03;5055423;28;20388;-63
2022/11/05 00:29:41;;;;;;;8.00;3.73;;;;;;;12.93;81.76;100369.84;5054533;28;20243;-64
2022/11/05 00:32:08;;;;;;;5.80;3.30;;;;;;;12.95;81.63;100375.81;5053779;28;20273;-63
2022/11/05 00:34:37;;;;;;;8.87;3.33;;;;;;;12.94;81.52;100379.47;5048110;28;20207;-63
2022/11/05 00:37:05;;;;;;;5.67;3.10;;;;;;;12.95;81.65;100387.31;5051504;28;20234;-63
2022/11/05 00:39:33;;;;;;;5.47;3.27;;;;;;;12.89;81.65;100387.13;5054063;28;20212;-64
2022/11/05 00:45:01;;;;;;;7.77;3.00;;;;;;;12.87;82.18;100389.13;5050425;28;20208;-64
2022/11/05 00:50:16;;;;;;;7.20;2.80;;;;;;;12.89;81.50;100398.63;5054221;28;20210;-62
2022/11/05 00:52:56;;;;;;;4.00;2.43;;;;;;;12.98;81.08;100394.13;5051129;28;20265;-63
2022/11/05 00:55:33;;;;;;;6.37;2.73;;;;;;;12.96;81.22;100383.66;5056939;28;20216;-63
2022/11/05 00:58:02;;;;;;;4.70;3.00;;;;;;;12.93;81.26;100396.47;5050518;28;20681;-63
2022/11/05 01:00:31;;;;;;;4.60;3.13;;;;;;;12.89;81.47;100387.97;5049551;28;20207;-64
2022/11/05 01:03:01;;;;;;;4.23;2.37;;;;;;;12.89;81.73;100398.63;5049796;28;20200;-64
2022/11/05 01:05:32;;;;;;;5.17;2.67;;;;;;;12.89;82.09;100393.28;5052052;28;20582;-63
2022/11/05 01:08:00;;;;;;;4.37;2.60;;;;;;;12.88;81.75;100396.94;5047176;28;20342;-63
2022/11/05 01:10:29;;;;;;;4.47;2.50;;;;;;;12.92;81.74;100402.78;5049306;28;20204;-63
2022/11/05 01:12:57;;;;;;;5.57;2.80;;;;;;;12.93;81.62;100399.13;5055935;28;20563;-63
2022/11/05 01:15:25;;;;;;;5.93;3.07;;;;;;;12.92;81.89;100414.28;5049082;28;20559;-62
2022/11/05 01:17:52;;;;;;;6.37;2.93;;;;;;;12.88;82.20;100406.75;5055504;28;20531;-64
2022/11/05 01:20:20;;;;;;;6.27;2.40;;;;;;;12.87;82.28;100408.59;5049801;28;20212;-63
2022/11/05 01:22:49;;;;;;;6.00;2.80;;;;;;;12.89;82.46;100403.94;5044112;28;20203;-64
2022/11/05 01:25:17;;;;;;;5.13;3.00;;;;;;;12.84;82.42;100406.25;5046029;28;20248;-63
2022/11/05 01:27:44;;;;;;;7.23;2.90;;;;;;;12.87;81.94;100411.25;5047004;28;20212;-64
2022/11/05 01:30:13;;;;;;;6.93;2.53;;;;;;;12.88;81.79;100406.75;5052489;28;20909;-63
2022/11/05 01:32:41;;;;;;;5.73;2.77;;;;;;;12.82;82.05;100406.44;5049408;28;20231;-63
2022/11/05 01:35:13;;;;;;;5.90;3.23;;;;;;;12.83;81.46;100420.56;5050452;28;20264;-62
2022/11/05 01:37:41;;;;;;;4.67;2.60;;;;;;;12.82;81.42;100418.91;5046257;28;20713;-62
2022/11/05 01:40:11;;;;;;;4.40;2.90;;;;;;;12.85;81.06;100417.72;5046669;28;20594;-61
2022/11/05 01:42:38;;;;;;;11.00;3.23;;;;;;;12.80;81.32;100420.88;5045981;28;20212;-64
2022/11/05 01:45:13;;;;;;;6.27;3.40;;;;;;;12.81;81.48;100428.72;5054580;28;20223;-64
2022/11/05 01:48:01;;;;;;;5.93;3.57;;;;;;;12.80;81.08;100431.53;5051231;28;20211;-63
2022/11/05 01:50:37;;;;;;;7.73;3.47;;;;;;;12.73;81.00;100439.34;5051344;28;20265;-63
2022/11/05 01:53:12;;;;;;;6.67;3.60;;;;;;;12.69;81.32;100439.81;5052352;28;20204;-64
2022/11/05 01:55:45;;;;;;;7.73;3.47;;;;;;;12.68;81.60;100438.16;5052485;28;20499;-64
2022/11/05 01:58:16;;;;;;;8.70;3.90;;;;;;;12.58;81.48;100453.41;5050985;28;20669;-64
2022/11/05 02:00:44;;;;;;;8.07;4.47;;;;;;;12.62;81.46;100460.09;5051682;28;20288;-62
2022/11/05 02:03:14;;;;;;;6.87;4.23;;;;;;;12.59;81.12;100449.75;5053362;28;20265;-63
2022/11/05 02:05:43;;;;;;;9.83;5.03;;;;;;;12.55;81.15;100454.59;5055851;28;20243;-64
2022/11/05 02:08:16;;;;;;;7.67;4.70;;;;;;;12.52;81.33;100454.91;5054407;28;20207;-63
2022/11/05 02:10:45;;;;;;;9.10;4.63;;;;;;;12.46;81.41;100463.53;5053680;28;20754;-62
2022/11/05 02:13:13;;;;;;;8.27;4.53;;;;;;;12.48;81.47;100458.88;5049315;28;20633;-63
2022/11/05 02:15:50;;;;;;;11.13;5.17;;;;;;;12.52;80.78;100462.03;5048250;28;20212;-64
2022/11/05 02:18:29;;;;;;;11.90;5.10;;;;;;;12.53;80.49;100461.88;5047154;28;20204;-63
2022/11/05 02:21:14;;;;;;;13.80;5.63;;;;;;;12.53;80.48;100469.03;5047271;28;20206;-64
2022/11/05 02:24:23;;;;;;;12.63;5.40;;;;;;;12.55;80.60;100467.03;5050182;28;20208;-64
2022/11/05 02:27:09;;;;;;;10.43;5.37;;;;;;;12.52;81.08;100470.00;5020453;28;20236;-63
2022/11/05 02:30:11;;;;;;;13.10;6.67;;;;;;;12.63;80.38;100480.38;5049919;28;20211;-62
2022/11/05 02:32:56;;;;;;;9.90;5.73;;;;;;;12.51;80.59;100474.50;5031789;28;20347;-61
2022/11/05 02:35:37;;;;;;;10.70;6.27;;;;;;;12.47;81.14;100475.84;5042353;28;20212;-62
2022/11/05 02:38:08;;;;;;;11.70;6.70;;;;;;;12.43;81.72;100471.81;5047160;28;20707;-65
2022/11/05 02:40:45;;;;;;;15.30;6.90;;;;;;;12.42;82.13;100476.28;5046240;28;20242;-65
2022/11/05 02:43:22;;;;;;;13.00;7.13;;;;;;;12.42;82.24;100480.78;5044164;28;20203;-64
2022/11/05 02:46:02;;;;;;;13.27;7.20;;;;;;;12.43;81.96;100477.97;5055371;28;20203;-64
2022/11/05 02:48:42;;;;;;;10.67;6.90;;;;;;;12.40;82.21;100472.94;5050352;28;20206;-63
2022/11/05 02:51:17;;;;;;;11.80;6.30;;;;;;;12.43;82.23;100477.13;5051138;28;20670;-64
2022/11/05 02:53:50;;;;;;;17.33;7.83;;;;;;;12.47;81.63;100493.63;5052389;28;20214;-64
2022/11/05 02:56:23;;;;;;;12.63;6.87;;;;;;;12.47;82.06;100490.94;5050189;28;20613;-63
2022/11/05 02:58:51;;;;;;;10.93;6.30;;;;;;;12.49;81.92;100486.31;5050878;28;20261;-63
2022/11/05 03:01:19;;;;;;;14.77;6.93;;;;;;;12.51;81.99;100487.81;5049371;28;20215;-62
2022/11/05 03:03:53;;;;;;;11.33;6.77;;;;;;;12.56;81.71;100492.66;5047685;28;20574;-64
2022/11/05 03:06:45;;;;;;;15.90;7.23;;;;;;;12.52;81.87;100496.63;5052349;28;20254;-68
2022/11/05 03:09:29;;;;;;;14.83;6.37;;;;;;;12.52;81.99;100496.63;5043088;28;20207;-67
2022/11/05 03:12:08;;;;;;;12.60;6.30;;;;;;;12.55;81.91;100497.16;5044478;28;21050;-68
2022/11/05 03:14:43;;;;;;;13.50;5.67;;;;;;;12.60;81.23;100497.47;5054308;28;20235;-68
2022/11/05 03:17:21;;;;;;;8.73;5.00;;;;;;;12.64;80.58;100500.66;5045387;28;20229;-66
2022/11/05 03:20:01;;;;;;;10.17;6.17;;;;;;;12.69;80.18;100499.19;5048027;28;21832;-67
2022/11/05 03:22:34;;;;;;;9.10;5.33;;;;;;;12.68;79.90;100507.31;5042864;28;20211;-68
2022/11/05 03:25:05;;;;;;;9.37;5.07;;;;;;;12.66;79.31;100507.50;5043596;28;20212;-67
2022/11/05 03:27:37;;;;;;;11.27;5.63;;;;;;;12.67;79.59;100510.97;5046661;28;20265;-67
2022/11/05 03:30:10;;;;;;;10.20;5.27;;;;;;;12.68;79.50;100517.97;5041854;28;20211;-67
2022/11/05 03:32:41;;;;;;;9.20;4.93;;;;;;;12.66;79.00;100514.66;5044274;28;20228;-68
2022/11/05 03:35:16;;;;;;;7.17;4.43;;;;;;;12.62;78.95;100523.94;5047842;28;20282;-67
2022/11/05 03:37:47;;;;;;;10.77;4.33;;;;;;;12.58;78.63;100522.56;5050200;28;20612;-67
2022/11/05 03:40:18;;;;;;;8.97;4.10;;;;;;;12.59;78.33;100529.56;5047002;28;20216;-67
2022/11/05 03:42:49;;;;;;;6.53;4.13;;;;;;;12.62;77.82;100524.75;5052514;28;20215;-68
2022/11/05 03:45:22;;;;;;;7.70;3.73;;;;;;;12.61;77.60;100540.88;5053019;28;21106;-67
2022/11/05 03:47:53;;;;;;;7.53;4.00;;;;;;;12.58;77.02;100533.19;5050902;28;20215;-67
2022/11/05 03:50:27;;;;;;;5.83;3.20;;;;;;;12.58;76.80;100539.34;5052431;28;20293;-66
2022/11/05 03:52:59;;;;;;;7.77;3.70;;;;;;;12.61;77.07;100546.19;5056304;28;20888;-65
2022/11/05 03:55:35;;;;;;;4.60;2.83;;;;;;;12.62;76.97;100555.84;5060726;28;20223;-67
2022/11/05 03:58:04;;;;;;;4.50;2.80;;;;;;;12.58;76.31;100544.69;5054335;28;20270;-68
2022/11/05 04:00:33;;;;;;;6.13;3.27;;;;;;;12.56;76.14;100556.50;5056677;28;20703;-68
2022/11/05 04:03:01;;;;;;;4.73;2.90;;;;;;;12.52;76.16;100549.81;5061008;28;20206;-67
2022/11/05 04:05:30;;;;;;;5.80;2.80;;;;;;;12.55;75.89;100550.34;5056698;28;20207;-68
2022/11/05 04:13:28;;;;;;;6.80;3.13;;;;;;;12.53;76.11;100570.94;5053945;28;20238;-66
2022/11/05 04:18:43;;;;;;;5.67;3.00;;;;;;;12.48;77.50;100564.44;5054002;28;20208;-67
2022/11/05 04:24:08;;;;;;;5.30;2.93;;;;;;;12.54;77.02;100571.78;5015600;28;20216;-68
2022/11/05 04:26:38;;;;;;;4.40;2.63;;;;;;;12.52;76.61;100576.41;5050841;28;20437;-67
2022/11/05 04:31:51;;;;;;;3.97;2.37;;;;;;;12.47;77.08;100584.03;5051257;28;20214;-67
2022/11/05 04:34:20;;;;;;;4.97;2.70;;;;;;;12.46;77.11;100599.16;5051160;28;20705;-66
2022/11/05 04:36:50;;;;;;;5.37;2.20;;;;;;;12.44;77.08;100596.66;5047242;28;20227;-66
2022/11/05 04:39:18;;;;;;;5.13;2.63;;;;;;;12.41;76.77;100596.97;5048347;28;20201;-66
2022/11/05 04:41:47;;;;;;;5.20;2.33;;;;;;;12.39;76.87;100604.28;5050943;28;21135;-66
2022/11/05 04:44:15;;;;;;;4.93;2.40;;;;;;;12.34;76.37;100601.25;5052339;28;20262;-66
2022/11/05 04:46:43;;;;;;;3.93;2.20;;;;;;;12.35;76.43;100602.91;5053337;28;20647;-67
2022/11/05 04:49:10;;;;;;;4.40;2.50;;;;;;;12.31;76.56;100598.88;5049719;28;20212;-66
2022/11/05 04:51:38;;;;;;;4.00;2.30;;;;;;;12.34;76.37;100611.03;5052662;28;20722;-67
2022/11/05 04:54:07;;;;;;;4.50;2.33;;;;;;;12.33;76.14;100604.03;5048073;28;21831;-67
2022/11/05 04:56:34;;;;;;;3.63;2.10;;;;;;;12.32;76.42;100603.22;5046080;28;20212;-67
2022/11/05 04:59:02;;;;;;;3.53;1.70;;;;;;;12.31;75.51;100603.41;5049417;28;20219;-67
2022/11/05 05:01:30;;;;;;;3.57;2.07;;;;;;;12.31;74.97;100606.84;5046519;28;20204;-67
2022/11/05 05:03:57;;;;;;;5.13;2.10;;;;;;;12.29;75.06;100608.03;5049185;28;20294;-67
2022/11/05 05:06:25;;;;;;;6.00;1.83;;;;;;;12.22;75.41;100615.78;5049664;28;20305;-66
2022/11/05 05:08:53;;;;;;;4.70;1.73;;;;;;;12.23;75.50;100613.94;5045509;28;20297;-66
2022/11/05 05:11:22;;;;;;;3.57;1.90;;;;;;;12.24;75.17;100612.97;5047392;28;20214;-65
2022/11/05 05:13:50;;;;;;;4.27;1.93;;;;;;;12.22;76.27;100613.13;5046065;28;20243;-66
2022/11/05 05:16:20;;;;;;;4.30;2.07;;;;;;;12.23;76.24;100617.44;5052781;28;20208;-66
2022/11/05 05:18:49;;;;;;;4.73;1.80;;;;;;;12.22;76.41;100622.94;5049670;28;20652;-66
2022/11/05 05:24:04;;;;;;;3.37;1.80;;;;;;;12.22;76.66;100623.78;5048270;28;20261;-66
2022/11/05 05:26:33;;;;;;;4.80;1.70;;;;;;;12.22;76.37;100629.09;5048087;28;20603;-66
2022/11/05 05:29:01;;;;;;;4.13;1.83;;;;;;;12.22;76.44;100629.09;5049223;28;20235;-66
2022/11/05 05:31:29;;;;;;;3.40;1.73;;;;;;;12.16;76.34;100626.19;5048174;28;20811;-65
2022/11/05 05:33:57;;;;;;;4.73;1.90;;;;;;;12.12;77.13;100627.50;5050037;28;20231;-67
2022/11/05 05:36:24;;;;;;;5.00;1.90;;;;;;;12.15;76.99;100629.84;5048650;28;20273;-66
2022/11/05 05:38:52;;;;;;;4.00;2.10;;;;;;;12.12;76.89;100633.66;5043597;28;20342;-67
2022/11/05 05:41:20;;;;;;;3.73;2.00;;;;;;;12.14;76.83;100631.66;5047336;28;20784;-66
2022/11/05 05:43:49;;;;;;;4.10;2.30;;;;;;;12.16;76.34;100635.00;5048394;28;20204;-66
2022/11/05 05:46:18;;;;;;;5.47;2.33;;;;;;;12.14;76.40;100642.28;5050672;28;20200;-67
2022/11/05 05:48:49;;;;;;;4.10;2.30;;;;;;;12.12;76.69;100644.28;5050969;28;20268;-67
2022/11/05 05:51:18;;;;;;;4.33;2.10;;;;;;;12.15;76.63;100646.63;5055743;28;20219;-66
2022/11/05 05:53:45;;;;;;;4.30;2.53;;;;;;;12.13;77.44;100651.28;5044835;28;20230;-66
2022/11/05 05:56:17;;;;;;;5.93;2.50;;;;;;;12.20;76.78;100652.31;5047874;28;20620;-66
2022/11/05 05:58:45;;;;;;;6.97;2.90;;;;;;;12.23;76.20;100659.97;5057135;28;20295;-66
2022/11/05 06:01:16;;;;;;;5.10;2.57;;;;;;;12.22;76.37;100663.66;5053523;28;20215;-66
2022/11/05 06:03:47;;;;;;;5.07;2.70;;;;;;;12.16;76.80;100666.91;5056371;28;20196;-67
2022/11/05 06:06:18;;;;;;;7.27;3.40;;;;;;;12.20;76.98;100673.59;5056776;28;20662;-66
2022/11/05 06:08:46;;;;;;;6.93;3.40;;;;;;;12.29;76.58;100674.50;5052986;28;20207;-66
2022/11/05 06:11:14;;;;;;;5.57;3.30;;;;;;;12.29;76.30;100678.00;5057201;28;20219;-66
2022/11/05 06:13:41;;;;;;;7.37;3.90;;;;;;;12.34;76.03;100681.00;5056625;28;20224;-66
2022/11/05 06:16:10;;;;;;;7.20;3.33;;;;;;;12.33;75.78;100689.97;5057341;28;20211;-66
2022/11/05 06:18:39;;;;;;;7.73;3.63;;;;;;;12.37;75.76;100690.50;5053061;28;20216;-66
2022/11/05 06:21:09;;;;;;;9.17;3.80;;;;;;;12.37;75.40;100693.19;5056565;28;20215;-66
2022/11/05 06:23:39;;;;;;;6.97;3.37;;;;;;;12.33;75.60;100695.28;5052791;28;20861;-66
2022/11/05 06:26:08;;;;;;;5.90;3.13;;;;;;;12.31;75.71;100701.78;5052571;28;20235;-66
2022/11/05 06:28:36;;;;;;;11.30;3.33;;;;;;;12.36;75.80;100700.31;5056120;28;20262;-66
2022/11/05 06:31:04;;;;;;;5.37;2.90;;;;;;;12.32;75.36;100711.41;5051458;28;20924;-66
2022/11/05 06:33:32;;;;;;;8.37;3.60;;;;;;;12.30;75.48;100711.56;5046324;28;20687;-67
2022/11/05 06:36:01;;;;;;;6.23;3.30;;;;;;;12.30;75.22;100711.56;5046669;28;20806;-66
2022/11/05 06:38:32;;;;;;;6.60;2.83;;;;;;;12.34;75.04;100723.56;5048014;28;20215;-66
2022/11/05 06:41:00;;;;;;;6.57;3.57;;;;;;;12.32;75.04;100719.38;5048831;28;20208;-67
2022/11/05 06:43:35;;;;;;;7.10;3.63;;;;;;;12.31;75.57;100729.19;5042525;28;20203;-68
2022/11/05 06:46:03;;;;;;;6.63;3.60;;;;;;;12.24;76.16;100728.13;5046432;28;20212;-65
2022/11/05 06:48:31;;;;;;;7.43;3.50;;;;;;;12.20;76.08;100732.09;5051093;28;20226;-66
2022/11/05 06:50:59;;;;;;;8.47;3.60;;;;;;;12.18;75.96;100744.69;5042859;28;20208;-66
2022/11/05 06:53:30;;;;;;;7.63;4.40;;;;;;;12.17;75.96;100734.19;5044964;28;20231;-66
2022/11/05 06:56:01;;;;;;;7.60;3.80;;;;;;;12.22;75.64;100739.91;5045571;28;21092;-67
2022/11/05 06:58:29;;;;;;;11.67;4.47;;;;;;;12.24;75.66;100730.78;5043717;28;20266;-66
2022/11/05 07:01:00;;;;;;;9.07;4.47;;;;;;;12.27;75.64;100742.94;5041491;28;22102;-66
2022/11/05 07:03:27;;;;;;;7.57;4.77;;;;;;;12.23;76.07;100739.75;5049006;28;20199;-68
2022/11/05 07:05:57;;;;;;;7.80;4.47;;;;;;;12.26;76.07;100758.06;5043895;28;20219;-68
2022/11/05 07:08:25;;;;;;;9.67;4.60;;;;;;;12.26;75.77;100752.75;5046047;28;20200;-67
2022/11/05 07:10:54;;;;;;;11.63;5.20;;;;;;;12.27;75.25;100758.91;5049243;28;20236;-66
2022/11/05 07:13:22;;;;;;;12.30;5.07;;;;;;;12.22;75.29;100766.50;5050338;28;20608;-66
2022/11/05 07:15:50;;;;;;;9.13;5.47;;;;;;;12.24;75.53;100767.16;5056882;28;20691;-66
2022/11/05 07:18:17;;;;;;;9.27;5.30;;;;;;;12.31;75.92;100766.41;5048213;28;20742;-66
2022/11/05 07:20:45;;;;;;;12.57;6.00;;;;;;;12.27;75.47;100780.16;5050651;28;21020;-66
2022/11/05 07:23:14;;;;;;;12.33;6.60;;;;;;;12.29;75.87;100779.03;5049118;28;20212;-66
2022/11/05 07:25:42;;;;;;;14.70;5.33;;;;;;;12.30;75.88;100780.72;5047966;28;20228;-65
2022/11/05 07:28:13;;;;;;;11.50;5.57;;;;;;;12.37;75.38;100787.09;5047794;28;22339;-65
2022/11/05 07:30:40;;;;;;;13.80;5.70;;;;;;;12.41;75.31;100787.59;5055221;28;20947;-66
2022/11/05 07:33:09;;;;;;;10.83;5.97;;;;;;;12.41;74.81;100783.13;5051258;28;20220;-66
2022/11/05 07:35:37;;;;;;;11.00;5.63;;;;;;;12.42;74.94;100792.78;5053540;28;20560;-65
2022/11/05 07:38:04;;;;;;;14.23;5.70;;;;;;;12.42;75.43;100795.44;5050150;28;20246;-66
2022/11/05 07:40:32;;;;;;;9.37;5.33;;;;;;;12.46;75.34;100805.78;5051348;28;20601;-65
2022/11/05 07:43:01;;;;;;;10.07;5.77;;;;;;;12.48;75.62;100809.13;5049334;28;20219;-65
2022/11/05 07:45:31;;;;;;;9.73;5.13;;;;;;;12.43;75.41;100813.06;5046953;28;20216;-65
2022/11/05 07:48:00;;;;;;;9.50;5.47;;;;;;;12.43;75.47;100814.88;5052168;28;20274;-65
2022/11/05 07:50:30;;;;;;;8.33;5.60;;;;;;;12.47;75.95;100821.59;5054122;28;20212;-66
2022/11/05 07:53:02;;;;;;;13.67;5.53;;;;;;;12.54;75.16;100819.16;5056806;28;20689;-65
2022/11/05 07:55:30;;;;;;;12.60;5.63;;;;;;;12.55;74.61;100826.16;5058447;28;20305;-66
2022/11/05 07:57:57;;;;;;;13.10;6.50;;;;;;;12.55;74.94;100820.84;5054697;28;20645;-66
2022/11/05 08:00:26;;;;;;;11.30;5.67;;;;;;;12.58;74.34;100831.16;5050475;28;20208;-68
2022/11/05 08:03:00;;;;;;;11.53;5.90;;;;;;;12.57;73.80;100826.84;5059071;28;20249;-67
2022/11/05 08:05:37;;;;;;;13.13;5.67;;;;;;;12.66;73.53;100840.06;5054438;28;20200;-66
2022/11/05 08:08:06;;;;;;;9.63;5.33;;;;;;;12.66;73.42;100839.22;5050520;28;21053;-66
2022/11/05 08:10:34;;;;;;;9.07;5.43;;;;;;;12.67;72.87;100848.84;5055914;28;20849;-67
2022/11/05 08:13:02;;;;;;;10.03;5.90;;;;;;;12.70;72.47;100851.22;5056184;28;20203;-66
2022/11/05 08:15:31;;;;;;;14.60;6.47;;;;;;;12.72;72.24;100857.25;5059891;28;20696;-68
2022/11/05 08:18:01;;;;;;;11.47;5.83;;;;;;;12.74;72.02;100852.59;5051333;28;20249;-66
2022/11/05 08:20:30;;;;;;;8.63;5.63;;;;;;;12.84;72.15;100857.84;5053107;28;20207;-67
2022/11/05 08:22:58;;;;;;;9.97;5.37;;;;;;;12.87;71.75;100858.34;5058750;28;20290;-66
2022/11/05 08:25:26;;;;;;;10.20;5.13;;;;;;;12.89;71.14;100864.38;5054638;28;20709;-66
2022/11/05 08:27:57;;;;;;;11.77;5.80;;;;;;;12.92;71.41;100864.06;5055966;28;20192;-67
2022/11/05 08:30:26;;;;;;;9.30;5.13;;;;;;;12.91;71.96;100861.56;5056493;28;20219;-67
2022/11/05 08:32:57;;;;;;;10.50;5.30;;;;;;;12.87;71.78;100866.34;5052534;28;20297;-67
2022/11/05 08:35:27;;;;;;;13.87;5.70;;;;;;;12.86;71.83;100867.31;5053822;28;20289;-67
2022/11/05 08:37:57;;;;;;;10.83;5.53;;;;;;;12.84;71.77;100869.31;5054131;28;20752;-67
2022/11/05 08:40:25;;;;;;;10.40;5.20;;;;;;;12.86;71.96;100867.31;5052504;28;20208;-67
2022/11/05 08:42:53;;;;;;;12.90;5.30;;;;;;;12.91;71.98;100877.53;5051904;28;20219;-67
2022/11/05 08:45:21;;;;;;;10.00;5.70;;;;;;;12.95;72.04;100873.56;5051173;28;20245;-67
2022/11/05 08:47:48;;;;;;;10.80;5.20;;;;;;;12.95;71.85;100870.91;5047385;28;20259;-67
2022/11/05 08:50:16;;;;;;;10.30;5.50;;;;;;;12.92;71.55;100872.06;5047722;28;20611;-67
2022/11/05 08:52:45;;;;;;;10.57;5.33;;;;;;;13.03;71.44;100873.63;5045660;28;20208;-67
2022/11/05 08:55:13;;;;;;;8.50;4.77;;;;;;;13.50;69.74;100882.16;5044799;28;20241;-67
2022/11/05 08:57:40;;;;;;;11.57;5.20;;;;;;;13.57;68.68;100883.19;5049259;28;20255;-67
2022/11/05 09:00:09;;;;;;;8.57;4.27;;;;;;;13.49;69.00;100885.81;5046528;28;20268;-67
2022/11/05 09:02:37;;;;;;;9.60;4.50;;;;;;;13.44;69.44;100882.81;5051417;28;20214;-66
2022/11/05 09:05:05;;;;;;;10.87;5.00;;;;;;;13.44;69.80;100882.81;5047472;28;20207;-66
2022/11/05 09:07:33;;;;;;;7.53;4.07;;;;;;;13.45;69.39;100884.47;5045751;28;20660;-67
2022/11/05 09:10:02;;;;;;;9.70;5.17;;;;;;;13.47;69.69;100882.47;5048144;28;20205;-66
2022/11/05 09:12:30;;;;;;;13.83;4.60;;;;;;;13.52;69.50;100882.84;5046668;28;20225;-66
2022/11/05 09:14:57;;;;;;;8.80;4.50;;;;;;;13.52;69.77;100883.69;5052606;28;20243;-67
2022/11/05 09:17:25;;;;;;;10.63;5.00;;;;;;;13.62;70.30;100883.59;5054724;28;20207;-67
2022/11/05 09:19:53;;;;;;;10.33;4.80;;;;;;;13.76;69.67;100890.97;5058419;28;20208;-66
2022/11/05 09:22:20;;;;;;;10.33;4.70;;;;;;;13.89;68.91;100887.91;5047704;28;20218;-66
2022/11/05 09:24:48;;;;;;;10.23;5.10;;;;;;;14.07;68.03;100885.94;5049071;28;20647;-67
2022/11/05 09:27:17;;;;;;;9.93;4.70;;;;;;;14.43;67.03;100894.59;5046771;28;20279;-66
2022/11/05 09:29:45;;;;;;;13.53;4.50;;;;;;;14.73;65.53;100895.00;5045033;28;20262;-67
2022/11/05 09:32:17;;;;;;;9.43;4.23;;;;;;;14.97;63.54;100889.69;5049202;28;20237;-66
2022/11/05 09:34:44;;;;;;;8.17;4.40;;;;;;;15.77;62.12;100887.94;5049252;28;20222;-66
2022/11/05 09:37:12;;;;;;;11.87;4.60;;;;;;;16.69;58.98;100889.91;5044344;28;20708;-66
2022/11/05 09:39:40;;;;;;;15.97;4.03;;;;;;;17.09;57.70;100888.75;5045232;28;20207;-63
2022/11/05 09:42:09;;;;;;;8.47;4.33;;;;;;;17.07;56.31;100895.28;5048633;28;20207;-62
2022/11/05 09:44:43;;;;;;;7.30;3.70;;;;;;;16.93;56.78;100896.91;5049614;28;20217;-64
2022/11/05 09:47:15;;;;;;;8.37;3.97;;;;;;;16.78;56.53;100906.75;5047194;28;20231;-63
2022/11/05 09:49:49;;;;;;;12.77;4.23;;;;;;;16.68;56.64;100904.28;5047578;28;20208;-63
2022/11/05 09:52:21;;;;;;;7.60;3.70;;;;;;;16.65;57.31;100910.00;5048525;28;20222;-64
2022/11/05 09:54:50;;;;;;;10.27;3.50;;;;;;;16.76;57.12;100914.13;5046473;28;20207;-62
2022/11/05 09:57:23;;;;;;;9.50;3.60;;;;;;;16.76;56.20;100916.78;5049001;28;20208;-63
2022/11/05 09:59:56;;;;;;;6.50;3.43;;;;;;;16.66;55.94;100922.38;5051030;28;20294;-65
2022/11/05 10:02:27;;;;;;;7.70;3.50;;;;;;;16.58;55.98;100930.44;5047687;28;20203;-63
2022/11/05 10:04:57;;;;;;;8.93;3.67;;;;;;;16.67;55.93;100929.41;5047633;28;20235;-64
2022/11/05 10:07:31;;;;;;;9.48;3.97;;;;;;;17.86;52.85;100918.84;5050072;28;20480;-62
2022/11/05 10:10:03;;;;;;;8.00;3.17;;;;;;;18.96;50.00;100922.31;5054627;28;20215;-62
2022/11/05 10:12:39;;;;;;;5.87;2.93;;;;;;;20.52;45.95;100920.09;5051814;28;20209;-62
2022/11/05 10:15:14;;;;;;;7.57;3.13;;;;;;;22.49;41.81;100910.25;5052547;28;20239;-62
2022/11/05 10:17:47;;;;;;;7.23;2.80;;;;;;;24.23;38.04;100913.84;5054457;28;20676;-62
2022/11/05 10:20:22;;;;;;;7.77;2.97;;;;;;;26.45;33.50;100901.44;5056748;28;20620;-62
2022/11/05 10:22:56;;;;;;;4.40;2.33;;;;;;;27.02;33.00;100911.47;5058210;28;20207;-62
2022/11/05 10:25:36;;;;;;;7.65;3.03;;;;;;;24.89;35.04;100918.38;5112366;27;20588;-61
2022/11/05 10:28:05;;;;;;;7.15;2.80;;;;;;;22.87;39.13;100924.63;5092221;28;20619;-62
2022/11/05 10:30:34;;;;;;;8.70;2.83;;;;;;;21.49;41.30;100918.81;5102832;28;20282;-63
2022/11/05 10:33:06;;;;;;;7.93;3.00;;;;;;;20.06;44.54;100933.31;5094099;28;20205;-62
2022/11/05 10:35:47;;;;;;;11.07;2.95;;;;;;;19.11;47.21;100941.88;5096682;28;20221;-62
2022/11/05 10:38:15;;;;;;;8.17;2.87;;;;;;;19.42;47.35;100932.66;5098413;28;20203;-62
2022/11/05 10:40:58;;;;;;;9.47;2.87;;;;;;;19.77;46.50;100934.41;5091946;28;20214;-62
2022/11/05 10:43:35;;;;;;;7.00;2.83;;;;;;;20.75;44.97;100935.09;5094624;28;20201;-62
2022/11/05 10:46:21;;;;;;;34.10;3.73;;;;;;;20.49;45.05;100933.94;5096860;28;20205;-60
2022/11/05 10:48:59;;;;;;;6.13;2.47;;;;;;;20.17;45.20;100935.44;5093173;28;20197;-63
2022/11/05 10:51:27;;;;;;;28.20;3.30;;;;;;;20.12;45.50;100929.84;5095608;28;20267;-62
2022/11/05 10:53:57;;;;;;;6.17;1.80;;;;;;;20.64;44.61;100940.03;5098596;28;20202;-61
2022/11/05 10:56:32;;;;;;;6.18;2.08;;;;;;;22.84;40.98;100935.88;5096328;28;20291;-64
2022/11/05 10:59:02;;;;;;;7.90;2.60;;;;;;;25.03;36.65;100928.03;5087858;28;20607;-64
2022/11/05 11:01:38;;;;;;;5.60;1.77;;;;;;;26.16;34.61;100919.56;5096607;28;20233;-65
2022/11/05 11:04:24;;;;;;;6.00;1.98;;;;;;;27.18;31.12;100919.63;5095064;28;20272;-62
2022/11/05 11:06:55;;;;;;;10.30;2.30;;;;;;;27.90;31.80;100913.41;5100349;28;20255;-62
2022/11/05 11:09:26;;;;;;;5.00;2.20;;;;;;;28.23;31.26;100918.81;5090984;28;21200;-61
2022/11/05 11:12:01;;;;;;;5.53;1.73;;;;;;;27.31;32.07;100913.88;5091002;28;20226;-61
2022/11/05 11:14:29;;;;;;;6.50;1.73;;;;;;;25.09;34.82;100913.50;5093087;28;20246;-61
2022/11/05 11:17:17;;;;;;;14.23;2.45;;;;;;;23.83;37.36;100912.63;5094707;28;20198;-61
2022/11/05 11:19:45;;;;;;;6.93;1.90;;;;;;;23.28;39.08;100915.19;5091430;28;20210;-61
2022/11/05 11:22:18;;;;;;;4.95;1.70;;;;;;;23.65;38.47;100920.72;5091214;28;20505;-61
2022/11/05 11:24:48;;;;;;;4.25;1.65;;;;;;;23.99;37.69;100909.31;5094575;28;20245;-61
2022/11/05 11:27:21;;;;;;;3.40;1.40;;;;;;;23.12;38.00;100915.72;5089288;28;20267;-61
2022/11/05 11:29:54;;;;;;;5.75;1.70;;;;;;;22.37;39.72;100911.97;5090218;28;20241;-61
2022/11/05 11:32:27;;;;;;;6.05;1.50;;;;;;;22.51;39.46;100908.19;5093741;28;20209;-60
2022/11/05 11:34:57;;;;;;;7.53;1.60;;;;;;;22.75;39.01;100912.03;5090691;28;20212;-61
2022/11/05 11:37:28;;;;;;;6.32;1.50;;;;;;;22.71;38.98;100917.00;5083837;28;20287;-62
2022/11/05 11:40:00;;;;;;;6.28;1.05;;;;;;;22.20;39.60;100917.03;5081028;28;20203;-62
2022/11/05 11:42:31;;;;;;;6.78;1.40;;;;;;;21.15;40.44;100915.25;5080694;28;20203;-60
2022/11/05 11:45:04;;;;;;;7.57;1.40;;;;;;;19.96;42.66;100910.50;5082457;28;20222;-61
2022/11/05 11:47:32;;;;;;;5.28;1.30;;;;;;;19.04;44.34;100915.97;5076549;28;20925;-61
2022/11/05 11:50:01;;;;;;;5.15;1.30;;;;;;;18.32;46.51;100922.16;5080870;28;20203;-63
2022/11/05 11:52:31;;;;;;;5.43;1.30;;;;;;;17.75;48.57;100923.88;5076730;28;20215;-62
2022/11/05 11:55:21;;;;;;;6.70;1.97;;;;;;;17.31;49.93;100919.22;5078780;28;20199;-62
2022/11/05 11:57:52;;;;;;;9.37;1.90;;;;;;;17.01;51.47;100917.44;5075625;28;20207;-62
2022/11/05 12:00:25;;;;;;;4.50;2.00;;;;;;;16.74;51.89;100916.13;5079235;28;20280;-62
2022/11/05 12:03:07;;;;;;;5.73;2.03;;;;;;;16.52;52.95;100921.25;5078038;28;20214;-61
2022/11/05 12:05:45;;;;;;;7.57;1.70;;;;;;;16.40;53.38;100927.16;5079141;28;20226;-62
2022/11/05 12:08:35;;;;;;;4.83;1.90;;;;;;;16.18;53.59;100916.22;5075512;28;20210;-62
2022/11/05 12:11:10;;;;;;;7.90;2.00;;;;;;;15.94;54.78;100921.66;5079786;28;20538;-61
2022/11/05 12:14:01;;;;;;;3.70;1.90;;;;;;;15.73;54.02;100913.38;5080098;28;20222;-61
2022/11/05 12:16:45;;;;;;;7.47;2.40;;;;;;;15.62;55.93;100916.41;5077451;28;20199;-63
2022/11/05 12:19:24;;;;;;;10.83;2.77;;;;;;;15.84;55.45;100912.16;5086679;28;20715;-61
2022/11/05 12:22:03;;;;;;;7.27;2.40;;;;;;;15.97;56.09;100905.28;5083647;28;20256;-62